Time;durP1;ratioP1;P1;durP2;ratioP2;P2;SDS_P1;SDS_P2;PMS_P1;PMS_P2;Temp;Humidity;BMP_temperature;BMP_pressure;BME280_temperature;BME280_humidity;BME280_pressure;Samples;Min_cycle;Max_cycle;Signal;HPM_P1;HPM_P2
2023/12/30 00:00:51;;;;;;;3.87;0.97;;;6.40;99.90;;;;;;5037529;28;20043;-70
2023/12/30 00:03:16;;;;;;;8.53;0.80;;;6.40;99.90;;;;;;5042192;28;20245;-70
2023/12/30 00:05:43;;;;;;;6.23;0.87;;;6.30;99.90;;;;;;5040708;28;20520;-70
2023/12/30 00:08:08;;;;;;;9.75;0.85;;;6.30;99.90;;;;;;5042490;28;20120;-70
2023/12/30 00:10:34;;;;;;;7.17;0.93;;;6.30;99.90;;;;;;5038766;28;20119;-70
2023/12/30 00:13:02;;;;;;;6.40;0.93;;;6.30;99.90;;;;;;5038451;28;20045;-70
2023/12/30 00:15:27;;;;;;;10.05;1.95;;;6.30;99.90;;;;;;5044736;28;20448;-70
2023/12/30 00:17:53;;;;;;;7.83;1.07;;;6.20;99.90;;;;;;5043376;28;20067;-70
2023/12/30 00:20:19;;;;;;;4.33;0.67;;;6.30;99.90;;;;;;5041390;28;20041;-70
2023/12/30 00:22:45;;;;;;;4.20;0.85;;;6.30;99.90;;;;;;5035393;28;20055;-70
2023/12/30 00:25:11;;;;;;;2.07;0.80;;;6.30;99.90;;;;;;5039494;28;20411;-70
2023/12/30 00:27:36;;;;;;;5.07;0.97;;;6.30;99.90;;;;;;5027508;28;20045;-70
2023/12/30 00:30:03;;;;;;;7.30;1.47;;;6.30;99.90;;;;;;5044192;28;20132;-70
2023/12/30 00:32:28;;;;;;;7.93;1.35;;;6.30;99.90;;;;;;5035498;28;20444;-70
2023/12/30 00:34:54;;;;;;;5.97;0.97;;;6.30;99.90;;;;;;5041281;28;20045;-70
2023/12/30 00:37:20;;;;;;;9.47;0.87;;;6.30;99.90;;;;;;5042822;28;20033;-69
2023/12/30 00:39:46;;;;;;;5.73;0.93;;;6.30;99.90;;;;;;5041850;28;20517;-69
2023/12/30 00:42:12;;;;;;;4.85;1.10;;;6.30;99.90;;;;;;5040525;28;20123;-70
2023/12/30 00:44:37;;;;;;;5.33;1.13;;;6.30;99.90;;;;;;5042471;28;20136;-69
2023/12/30 00:47:03;;;;;;;4.27;1.23;;;6.30;99.90;;;;;;5041192;28;20041;-69
2023/12/30 00:49:28;;;;;;;10.57;1.33;;;6.30;99.90;;;;;;5040054;28;20040;-70
2023/12/30 00:51:54;;;;;;;10.10;1.00;;;6.30;99.90;;;;;;5039918;28;20047;-69
2023/12/30 00:54:20;;;;;;;4.00;1.03;;;6.30;99.90;;;;;;5041407;28;20497;-69
2023/12/30 00:56:46;;;;;;;8.20;1.20;;;6.30;99.90;;;;;;5040938;28;20160;-69
2023/12/30 00:59:12;;;;;;;9.57;1.40;;;6.30;99.90;;;;;;5032417;28;20045;-70
2023/12/30 01:01:38;;;;;;;9.65;0.90;;;6.30;99.90;;;;;;5033259;28;20064;-70
2023/12/30 01:04:04;;;;;;;;;;;6.30;99.90;;;;;;5045450;28;20044;-69
2023/12/30 01:06:29;;;;;;;3.70;0.80;;;6.30;99.90;;;;;;5045502;28;20424;-69
2023/12/30 01:08:55;;;;;;;5.13;0.83;;;6.30;99.90;;;;;;5041291;28;20044;-70
2023/12/30 01:11:21;;;;;;;7.83;1.07;;;6.30;99.90;;;;;;5044334;28;20499;-69
2023/12/30 01:13:46;;;;;;;6.13;1.10;;;6.30;99.90;;;;;;5044822;28;20490;-69
2023/12/30 01:16:12;;;;;;;8.20;1.10;;;6.30;99.90;;;;;;5040799;28;20073;-69
2023/12/30 01:18:37;;;;;;;12.57;1.40;;;6.30;99.90;;;;;;5043862;28;20060;-69
2023/12/30 01:21:04;;;;;;;5.20;0.57;;;6.30;99.90;;;;;;5034790;28;20048;-69
2023/12/30 01:23:29;;;;;;;4.00;0.95;;;6.30;99.90;;;;;;5040765;28;20044;-69
2023/12/30 01:25:55;;;;;;;8.07;1.40;;;6.30;99.90;;;;;;5040989;28;20044;-69
2023/12/30 01:28:21;;;;;;;4.03;0.97;;;6.30;99.90;;;;;;5040222;28;20337;-71
2023/12/30 01:30:47;;;;;;;3.47;0.67;;;6.30;99.90;;;;;;5039076;28;20037;-71
2023/12/30 01:33:12;;;;;;;8.75;0.85;;;6.30;99.90;;;;;;5034437;28;20045;-71
2023/12/30 01:35:38;;;;;;;4.43;0.90;;;6.40;99.90;;;;;;5039627;28;20111;-71
2023/12/30 01:38:04;;;;;;;4.80;0.77;;;6.40;99.90;;;;;;5044803;28;20091;-71
2023/12/30 01:40:29;;;;;;;5.67;1.03;;;6.40;99.90;;;;;;5037831;28;20374;-71
2023/12/30 01:42:55;;;;;;;7.07;1.23;;;6.30;99.90;;;;;;5036682;28;20527;-71
2023/12/30 01:45:20;;;;;;;5.83;0.90;;;6.30;99.90;;;;;;5034336;28;20042;-71
2023/12/30 01:47:46;;;;;;;7.20;1.13;;;6.30;99.90;;;;;;5040320;28;20037;-71
2023/12/30 01:50:12;;;;;;;4.47;1.03;;;6.40;99.90;;;;;;5040860;28;20394;-71
2023/12/30 01:52:38;;;;;;;7.37;0.90;;;6.30;99.90;;;;;;5040505;28;20045;-71
2023/12/30 01:55:08;;;;;;;4.32;1.30;;;6.40;99.90;;;;;;5038285;28;20052;-71
2023/12/30 01:57:34;;;;;;;3.78;0.77;;;6.40;99.90;;;;;;5042321;28;20049;-71
2023/12/30 02:00:01;;;;;;;5.90;1.60;;;6.40;99.90;;;;;;5035372;28;20444;-71
2023/12/30 02:02:28;;;;;;;6.70;1.08;;;6.50;99.90;;;;;;5023209;28;20368;-71
2023/12/30 02:04:54;;;;;;;7.32;1.10;;;6.50;99.90;;;;;;5033036;28;20043;-71
2023/12/30 02:07:20;;;;;;;;;;;6.50;99.90;;;;;;5039468;28;20417;-71
2023/12/30 02:09:46;;;;;;;6.25;1.10;;;6.50;99.90;;;;;;5038636;28;19917;-71
2023/12/30 02:12:11;;;;;;;4.40;1.00;;;6.50;99.90;;;;;;5037204;28;20036;-71
2023/12/30 02:14:37;;;;;;;2.80;0.90;;;6.50;99.90;;;;;;5028638;28;20939;-71
2023/12/30 02:17:02;;;;;;;12.70;1.10;;;6.50;99.90;;;;;;5034821;28;20040;-71
2023/12/30 02:19:28;;;;;;;7.87;0.80;;;6.60;99.90;;;;;;5034687;28;20034;-71
2023/12/30 02:21:54;;;;;;;8.20;1.03;;;6.60;99.90;;;;;;5033215;28;20127;-71
2023/12/30 02:24:20;;;;;;;7.43;1.03;;;6.60;99.90;;;;;;5035525;28;20145;-71
2023/12/30 02:26:46;;;;;;;4.95;1.40;;;6.60;99.90;;;;;;5025590;28;20038;-71
2023/12/30 02:29:12;;;;;;;4.43;0.90;;;6.70;99.90;;;;;;5036915;28;20111;-71
2023/12/30 02:31:47;;;;;;;9.40;1.03;;;6.70;99.90;;;;;;5026313;28;20512;-71
2023/12/30 02:34:17;;;;;;;8.07;0.98;;;6.80;99.90;;;;;;5035032;28;20037;-71
2023/12/30 02:36:47;;;;;;;6.95;2.10;;;6.70;99.90;;;;;;5043028;28;20045;-71
2023/12/30 02:39:12;;;;;;;2.83;1.17;;;6.80;99.90;;;;;;5038282;28;20115;-71
2023/12/30 02:41:38;;;;;;;10.33;1.43;;;6.80;99.90;;;;;;5036677;28;20088;-71
2023/12/30 02:44:04;;;;;;;5.17;0.90;;;6.80;99.90;;;;;;5036035;28;20115;-71
2023/12/30 02:46:30;;;;;;;6.20;1.17;;;6.90;99.90;;;;;;5014670;28;20076;-71
2023/12/30 02:49:04;;;;;;;7.03;0.90;;;6.80;99.90;;;;;;5034530;28;20040;-71
2023/12/30 02:51:30;;;;;;;7.70;1.20;;;6.80;99.90;;;;;;5030136;28;20505;-71
2023/12/30 02:53:56;;;;;;;5.22;0.70;;;6.80;99.90;;;;;;5035530;28;20041;-71
2023/12/30 02:56:24;;;;;;;8.50;0.98;;;6.90;99.90;;;;;;5039647;28;20064;-71
2023/12/30 02:58:58;;;;;;;7.05;0.98;;;6.90;99.90;;;;;;5026758;28;20041;-71
2023/12/30 03:01:27;;;;;;;10.80;1.17;;;6.90;99.90;;;;;;5029009;28;20521;-71
2023/12/30 03:03:54;;;;;;;5.95;0.80;;;6.90;99.90;;;;;;5040033;28;20047;-71
2023/12/30 03:06:21;;;;;;;7.75;1.35;;;6.80;99.90;;;;;;5025954;28;20029;-72
2023/12/30 03:08:50;;;;;;;10.05;1.30;;;6.80;99.90;;;;;;5031871;28;20123;-71
2023/12/30 03:11:16;;;;;;;8.85;1.80;;;6.80;99.90;;;;;;5026876;28;20040;-71
2023/12/30 03:13:42;;;;;;;8.83;0.97;;;6.80;99.90;;;;;;5037515;28;20469;-71
2023/12/30 03:16:07;;;;;;;13.20;1.23;;;6.80;99.90;;;;;;5033276;28;20098;-71
2023/12/30 03:18:33;;;;;;;7.88;1.70;;;6.80;99.90;;;;;;5031109;28;20472;-69
2023/12/30 03:20:59;;;;;;;12.87;1.53;;;6.80;99.90;;;;;;5028688;28;20041;-69
2023/12/30 03:23:24;;;;;;;5.97;0.90;;;6.80;99.90;;;;;;5036985;28;20222;-70
2023/12/30 03:25:51;;;;;;;6.63;0.70;;;6.80;99.90;;;;;;5032810;28;20044;-69
2023/12/30 03:28:17;;;;;;;6.30;1.27;;;6.80;99.90;;;;;;5037285;28;20041;-67
2023/12/30 03:30:43;;;;;;;4.50;0.82;;;6.80;99.90;;;;;;5037608;28;20520;-67
2023/12/30 03:33:08;;;;;;;4.50;0.88;;;6.80;99.90;;;;;;5031873;28;20110;-69
2023/12/30 03:35:35;;;;;;;4.10;0.83;;;6.80;99.90;;;;;;5037201;28;20041;-68
2023/12/30 03:38:01;;;;;;;10.15;1.73;;;6.70;99.90;;;;;;5017132;28;20055;-69
2023/12/30 03:40:26;;;;;;;6.07;1.23;;;6.70;99.90;;;;;;5033277;28;20136;-69
2023/12/30 03:42:52;;;;;;;4.00;0.80;;;6.70;99.90;;;;;;5026909;28;20087;-69
2023/12/30 03:45:18;;;;;;;7.20;1.93;;;6.70;99.90;;;;;;5026762;28;20047;-68
2023/12/30 03:47:43;;;;;;;10.93;1.17;;;6.70;99.90;;;;;;5030074;28;20061;-69
2023/12/30 03:50:09;;;;;;;7.20;1.47;;;6.70;99.90;;;;;;5030570;28;20064;-68
2023/12/30 03:52:35;;;;;;;10.37;1.17;;;6.70;99.90;;;;;;5037296;28;20049;-68
2023/12/30 03:55:01;;;;;;;7.78;1.23;;;6.70;99.90;;;;;;5034085;28;20168;-68
2023/12/30 03:57:26;;;;;;;4.17;0.90;;;6.70;99.90;;;;;;5034953;28;20045;-69
2023/12/30 03:59:52;;;;;;;9.00;1.33;;;6.70;99.90;;;;;;5042969;28;20033;-69
2023/12/30 04:02:20;;;;;;;4.20;1.07;;;6.70;99.90;;;;;;5032314;28;20064;-69
2023/12/30 04:04:47;;;;;;;8.82;2.40;;;6.70;99.90;;;;;;5023758;28;20406;-69
2023/12/30 04:07:12;;;;;;;6.57;1.23;;;6.70;99.90;;;;;;5041189;28;20035;-69
2023/12/30 04:09:38;;;;;;;12.87;1.43;;;6.70;99.90;;;;;;5044426;28;20041;-69
2023/12/30 04:12:04;;;;;;;5.60;0.97;;;6.80;99.90;;;;;;5033170;28;20132;-69
2023/12/30 04:14:29;;;;;;;10.40;1.02;;;6.80;99.90;;;;;;5032142;28;20045;-70
2023/12/30 04:16:55;;;;;;;9.97;1.23;;;6.80;99.90;;;;;;5041153;28;20091;-69
2023/12/30 04:19:21;;;;;;;10.43;1.47;;;6.80;99.90;;;;;;5039247;28;20024;-70
2023/12/30 04:21:47;;;;;;;6.18;1.15;;;6.80;99.90;;;;;;5038048;28;20493;-70
2023/12/30 04:24:12;;;;;;;7.37;1.13;;;6.80;99.90;;;;;;5042010;28;20132;-69
2023/12/30 04:26:38;;;;;;;8.93;1.33;;;6.80;99.90;;;;;;5041022;28;20476;-69
2023/12/30 04:29:03;;;;;;;10.57;1.63;;;6.80;99.90;;;;;;5035168;28;20041;-69
2023/12/30 04:31:29;;;;;;;7.07;0.97;;;6.80;99.90;;;;;;5045471;28;20346;-70
2023/12/30 04:33:54;;;;;;;9.77;1.20;;;6.90;99.90;;;;;;5033540;28;20120;-69
2023/12/30 04:36:20;;;;;;;11.60;1.37;;;6.80;99.90;;;;;;5042843;28;20470;-69
2023/12/30 04:38:46;;;;;;;4.40;1.03;;;6.90;99.90;;;;;;5035822;28;20036;-69
2023/12/30 04:41:11;;;;;;;7.37;1.60;;;6.80;99.90;;;;;;5038297;28;20047;-70
2023/12/30 04:43:37;;;;;;;9.40;1.23;;;6.80;99.90;;;;;;5041351;28;20391;-70
2023/12/30 04:46:02;;;;;;;9.00;1.10;;;6.80;99.90;;;;;;5047348;28;21376;-70
2023/12/30 04:48:28;;;;;;;4.87;1.00;;;6.80;99.90;;;;;;5032249;28;20069;-70
2023/12/30 04:50:53;;;;;;;5.27;0.90;;;6.80;99.90;;;;;;5036724;28;20037;-70
2023/12/30 04:53:19;;;;;;;8.63;2.33;;;6.80;99.90;;;;;;5033378;28;20439;-70
2023/12/30 04:55:45;;;;;;;10.73;1.57;;;6.80;99.90;;;;;;5034265;28;20120;-70
2023/12/30 04:58:10;;;;;;;4.27;1.17;;;6.80;99.90;;;;;;5038976;28;20108;-70
2023/12/30 05:00:36;;;;;;;5.97;1.20;;;6.70;99.90;;;;;;5039209;28;20486;-70
2023/12/30 05:03:02;;;;;;;7.33;1.30;;;6.70;99.90;;;;;;5039037;28;20518;-69
2023/12/30 05:05:28;;;;;;;13.73;1.67;;;6.70;99.90;;;;;;5034273;28;20068;-70
2023/12/30 05:07:53;;;;;;;7.87;1.57;;;6.70;99.90;;;;;;5035960;28;20501;-69
2023/12/30 05:10:19;;;;;;;5.93;1.33;;;6.70;99.90;;;;;;5036244;28;20037;-70
2023/12/30 05:12:44;;;;;;;4.03;1.00;;;6.60;99.90;;;;;;5033857;28;20114;-69
2023/12/30 05:15:13;;;;;;;3.93;0.80;;;6.70;99.90;;;;;;5040123;28;20485;-69
2023/12/30 05:17:38;;;;;;;4.70;1.33;;;6.70;99.90;;;;;;5038733;28;20532;-70
2023/12/30 05:20:08;;;;;;;7.13;1.67;;;6.70;99.90;;;;;;5040585;28;20072;-70
2023/12/30 05:22:34;;;;;;;10.00;1.50;;;6.70;99.90;;;;;;5037153;28;20056;-70
2023/12/30 05:25:00;;;;;;;;;;;6.70;99.90;;;;;;5036281;28;20080;-70
2023/12/30 05:27:25;;;;;;;11.63;1.50;;;6.70;99.90;;;;;;5039678;28;20402;-70
2023/12/30 05:29:51;;;;;;;9.87;1.30;;;6.70;99.90;;;;;;5034624;28;20065;-70
2023/12/30 05:32:17;;;;;;;12.90;1.40;;;6.80;99.90;;;;;;5036152;28;20111;-70
2023/12/30 05:34:44;;;;;;;13.30;1.83;;;6.80;99.90;;;;;;5029948;28;20061;-69
2023/12/30 05:37:10;;;;;;;10.23;1.50;;;6.80;99.90;;;;;;5037585;28;20033;-70
2023/12/30 05:39:36;;;;;;;9.48;1.08;;;6.80;99.90;;;;;;5033548;28;20048;-70
2023/12/30 05:42:02;;;;;;;6.30;1.13;;;6.80;99.90;;;;;;5017196;28;20041;-70
2023/12/30 05:44:28;;;;;;;8.98;1.45;;;6.80;99.90;;;;;;5032851;28;20140;-70
2023/12/30 05:46:53;;;;;;;8.57;2.07;;;6.90;99.90;;;;;;5034738;28;20108;-70
2023/12/30 05:49:19;;;;;;;5.93;1.33;;;6.90;99.90;;;;;;5037371;28;20432;-70
2023/12/30 05:51:45;;;;;;;6.00;1.30;;;6.90;99.90;;;;;;5038465;28;20025;-70
2023/12/30 05:54:11;;;;;;;16.95;1.77;;;6.80;99.90;;;;;;5038510;28;20127;-70
2023/12/30 05:56:36;;;;;;;3.53;0.80;;;6.80;99.90;;;;;;5032965;28;20373;-68
2023/12/30 05:59:02;;;;;;;10.97;1.33;;;6.80;99.90;;;;;;5037431;28;20120;-68
2023/12/30 06:01:28;;;;;;;7.40;1.40;;;6.90;99.90;;;;;;5013186;28;20677;-68
2023/12/30 06:03:53;;;;;;;9.03;1.17;;;6.80;99.90;;;;;;5034473;28;20051;-68
2023/12/30 06:06:19;;;;;;;7.73;1.07;;;6.80;99.90;;;;;;5037795;28;20271;-68
2023/12/30 06:08:46;;;;;;;8.88;1.50;;;6.80;99.90;;;;;;5030458;28;20112;-68
2023/12/30 06:11:12;;;;;;;5.85;1.38;;;6.80;99.90;;;;;;5033732;28;20140;-68
2023/12/30 06:13:41;;;;;;;6.57;1.75;;;6.80;99.90;;;;;;5031610;28;20052;-68
2023/12/30 06:16:10;;;;;;;6.22;1.02;;;6.80;99.90;;;;;;5039802;28;20068;-68
2023/12/30 06:18:36;;;;;;;9.68;1.00;;;6.80;99.90;;;;;;5036190;28;20047;-68
2023/12/30 06:21:04;;;;;;;12.15;1.35;;;6.90;99.90;;;;;;5034826;28;20049;-68
2023/12/30 06:23:33;;;;;;;5.00;1.00;;;6.80;99.90;;;;;;5038367;28;20362;-68
2023/12/30 06:26:00;;;;;;;9.07;1.38;;;6.80;99.90;;;;;;5039810;28;20025;-68
2023/12/30 06:28:26;;;;;;;8.18;1.83;;;6.80;99.90;;;;;;5031044;28;20041;-68
2023/12/30 06:30:52;;;;;;;10.10;1.03;;;6.80;99.90;;;;;;5037145;28;20171;-68
2023/12/30 06:33:19;;;;;;;5.35;1.58;;;6.90;99.90;;;;;;5039182;28;20234;-68
2023/12/30 06:35:45;;;;;;;8.57;0.90;;;6.80;99.90;;;;;;5036072;28;20430;-68
2023/12/30 06:38:11;;;;;;;7.17;0.80;;;6.80;99.90;;;;;;5042849;28;20036;-68
2023/12/30 06:40:36;;;;;;;7.43;1.42;;;6.70;99.90;;;;;;5028854;28;20040;-68
2023/12/30 06:43:02;;;;;;;9.57;1.73;;;6.70;99.90;;;;;;5037406;28;20060;-68
2023/12/30 06:45:28;;;;;;;9.73;1.60;;;6.70;99.90;;;;;;5033560;28;20458;-68
2023/12/30 06:47:53;;;;;;;9.20;2.10;;;6.70;99.90;;;;;;5033135;28;20796;-68
2023/12/30 06:50:20;;;;;;;12.70;1.47;;;6.70;99.90;;;;;;5038889;28;20401;-71
2023/12/30 06:52:46;;;;;;;6.82;1.13;;;6.60;99.90;;;;;;5032441;28;20038;-71
2023/12/30 06:55:13;;;;;;;11.10;1.33;;;6.70;99.90;;;;;;5039506;28;20119;-71
2023/12/30 06:57:40;;;;;;;10.38;1.83;;;6.70;99.90;;;;;;5035096;28;20038;-71
2023/12/30 07:00:07;;;;;;;7.43;1.20;;;6.60;99.90;;;;;;5032647;28;20053;-71
2023/12/30 07:02:33;;;;;;;7.97;1.60;;;6.70;99.90;;;;;;5041512;28;20371;-71
2023/12/30 07:04:59;;;;;;;12.00;1.85;;;6.60;99.90;;;;;;5031948;28;20580;-71
2023/12/30 07:07:25;;;;;;;4.87;1.47;;;6.60;99.90;;;;;;5041199;28;20044;-71
2023/12/30 07:09:50;;;;;;;11.87;1.43;;;6.60;99.90;;;;;;5037680;28;20037;-71
2023/12/30 07:12:16;;;;;;;3.97;0.83;;;6.70;99.90;;;;;;5034324;28;20037;-71
2023/12/30 07:14:42;;;;;;;12.50;1.70;;;6.60;99.90;;;;;;5034071;28;20033;-71
2023/12/30 07:17:08;;;;;;;10.25;1.30;;;6.60;99.90;;;;;;5033469;28;20120;-71
2023/12/30 07:19:34;;;;;;;8.83;0.97;;;6.60;99.90;;;;;;5028682;28;20683;-71
2023/12/30 07:21:59;;;;;;;5.53;1.20;;;6.60;99.90;;;;;;5032598;28;20052;-71
2023/12/30 07:24:25;;;;;;;10.80;1.37;;;6.60;99.90;;;;;;5036405;28;20050;-70
2023/12/30 07:26:51;;;;;;;7.78;1.20;;;6.60;99.90;;;;;;5037346;28;20278;-71
2023/12/30 07:29:16;;;;;;;6.03;1.30;;;6.70;99.90;;;;;;5033350;28;20037;-71
2023/12/30 07:31:42;;;;;;;8.97;1.00;;;6.60;99.90;;;;;;5037749;28;20072;-71
2023/12/30 07:34:08;;;;;;;3.80;0.82;;;6.70;99.90;;;;;;5032005;28;20052;-71
2023/12/30 07:36:34;;;;;;;6.43;1.00;;;6.70;99.90;;;;;;5032055;28;20468;-71
2023/12/30 07:39:00;;;;;;;9.60;1.15;;;6.70;99.90;;;;;;5033279;28;20123;-71
2023/12/30 07:41:25;;;;;;;9.48;1.55;;;6.70;99.90;;;;;;5039971;28;20136;-71
2023/12/30 07:43:51;;;;;;;6.27;1.40;;;6.70;99.90;;;;;;5035933;28;20124;-71
2023/12/30 07:46:17;;;;;;;5.93;1.20;;;6.70;99.90;;;;;;5042808;28;20068;-71
2023/12/30 07:48:43;;;;;;;6.00;1.00;;;6.70;99.90;;;;;;5034381;28;20029;-71
2023/12/30 07:51:09;;;;;;;6.15;0.98;;;6.80;99.90;;;;;;5034154;28;20512;-71
2023/12/30 07:53:35;;;;;;;5.50;1.13;;;6.70;99.90;;;;;;5035263;28;20053;-71
2023/12/30 07:56:02;;;;;;;6.28;1.20;;;6.70;99.90;;;;;;5033264;28;20056;-71
2023/12/30 07:58:28;;;;;;;8.23;1.85;;;6.70;99.90;;;;;;5032134;28;20432;-71
2023/12/30 08:00:53;;;;;;;6.07;1.20;;;6.60;99.90;;;;;;5038030;28;20037;-71
2023/12/30 08:03:19;;;;;;;5.63;0.87;;;6.60;99.90;;;;;;5039383;28;20037;-71
2023/12/30 08:05:45;;;;;;;3.80;1.03;;;6.60;99.90;;;;;;5032572;28;20069;-71
2023/12/30 08:08:12;;;;;;;10.43;1.37;;;6.50;99.90;;;;;;5034743;28;20041;-70
2023/12/30 08:10:38;;;;;;;8.95;1.55;;;6.40;99.90;;;;;;5028953;28;20045;-71
2023/12/30 08:13:04;;;;;;;11.43;2.03;;;6.40;99.90;;;;;;5037800;28;20045;-70
2023/12/30 08:15:29;;;;;;;6.13;1.60;;;6.40;99.90;;;;;;5040654;28;20033;-70
2023/12/30 08:17:55;;;;;;;12.63;1.77;;;6.30;99.90;;;;;;5039319;28;20523;-71
2023/12/30 08:20:21;;;;;;;12.93;1.70;;;6.40;99.90;;;;;;5030021;28;20051;-71
2023/12/30 08:22:46;;;;;;;12.63;2.03;;;6.30;99.90;;;;;;5033414;28;20474;-71
2023/12/30 08:25:13;;;;;;;9.13;1.10;;;6.30;99.90;;;;;;5031225;28;20037;-71
2023/12/30 08:27:39;;;;;;;7.30;1.23;;;6.30;99.90;;;;;;5033467;28;20052;-71
2023/12/30 08:30:05;;;;;;;10.00;1.30;;;6.30;99.90;;;;;;5037435;28;20049;-71
2023/12/30 08:32:31;;;;;;;5.03;1.13;;;6.20;99.90;;;;;;5012306;28;20290;-71
2023/12/30 08:34:57;;;;;;;11.10;2.13;;;6.30;99.90;;;;;;5038682;28;20111;-71
2023/12/30 08:37:23;;;;;;;8.48;1.40;;;6.30;99.90;;;;;;5041780;28;20382;-71
2023/12/30 08:39:49;;;;;;;10.93;1.80;;;6.30;99.90;;;;;;5036873;28;20148;-71
2023/12/30 08:42:15;;;;;;;7.55;0.85;;;6.40;99.90;;;;;;5045477;28;20123;-71
2023/12/30 08:44:43;;;;;;;4.33;1.00;;;6.40;99.90;;;;;;5044437;28;20741;-71
2023/12/30 08:47:12;;;;;;;11.75;1.38;;;6.40;99.90;;;;;;5043036;28;20036;-71
2023/12/30 08:49:38;;;;;;;5.75;1.10;;;6.50;99.90;;;;;;5022546;28;20075;-71
2023/12/30 08:52:05;;;;;;;8.98;1.13;;;6.50;99.90;;;;;;5039420;28;20045;-71
2023/12/30 08:54:31;;;;;;;9.23;1.70;;;6.50;99.90;;;;;;5039190;28;20118;-71
2023/12/30 08:56:57;;;;;;;10.98;1.55;;;6.50;99.90;;;;;;5023474;28;20048;-68
2023/12/30 08:59:26;;;;;;;12.00;1.23;;;6.60;99.90;;;;;;5036904;28;20052;-69
2023/12/30 09:01:52;;;;;;;8.55;1.02;;;6.60;99.90;;;;;;5019433;28;20053;-69
2023/12/30 09:04:18;;;;;;;2.90;0.70;;;6.60;99.90;;;;;;5040848;28;20532;-69
2023/12/30 09:06:44;;;;;;;9.13;1.70;;;6.60;99.90;;;;;;5035926;28;20094;-69
2023/12/30 09:09:11;;;;;;;13.13;1.40;;;6.70;99.90;;;;;;5042739;28;20049;-69
2023/12/30 09:11:38;;;;;;;2.47;1.17;;;6.70;99.90;;;;;;5035462;28;20472;-69
2023/12/30 09:14:05;;;;;;;10.52;1.90;;;6.70;99.90;;;;;;5040233;28;20102;-69
2023/12/30 09:16:32;;;;;;;9.70;1.10;;;6.70;99.90;;;;;;5040735;28;20037;-69
2023/12/30 09:18:58;;;;;;;7.35;1.35;;;6.70;99.90;;;;;;5038730;28;20129;-69
2023/12/30 09:21:24;;;;;;;7.55;1.27;;;6.80;99.90;;;;;;5041781;28;20041;-69
2023/12/30 09:23:50;;;;;;;7.93;1.73;;;6.80;99.90;;;;;;5039270;28;20048;-69
2023/12/30 09:26:16;;;;;;;9.73;1.52;;;6.80;99.90;;;;;;5028094;28;20041;-69
2023/12/30 09:28:42;;;;;;;14.27;1.55;;;6.80;99.90;;;;;;5021376;28;20044;-69
2023/12/30 09:31:08;;;;;;;3.45;1.48;;;6.80;99.90;;;;;;5042808;28;20460;-69
2023/12/30 09:33:34;;;;;;;6.70;1.83;;;6.80;99.90;;;;;;5039828;28;20048;-69
2023/12/30 09:36:00;;;;;;;8.77;1.20;;;6.80;99.90;;;;;;5042756;28;20048;-69
2023/12/30 09:38:26;;;;;;;5.30;1.38;;;6.80;99.90;;;;;;5023367;28;20484;-69
2023/12/30 09:40:53;;;;;;;4.17;1.53;;;6.80;99.90;;;;;;5018025;28;20068;-71
2023/12/30 09:43:24;;;;;;;4.85;1.00;;;6.80;99.90;;;;;;5039582;28;20041;-69
2023/12/30 09:45:51;;;;;;;11.15;1.20;;;6.90;99.90;;;;;;5036994;28;20045;-68
2023/12/30 09:48:20;;;;;;;6.45;1.52;;;6.90;99.90;;;;;;5039027;28;20041;-69
2023/12/30 09:50:50;;;;;;;12.43;1.17;;;6.90;99.90;;;;;;5034126;28;20597;-69
2023/12/30 09:53:16;;;;;;;7.88;0.98;;;6.90;99.90;;;;;;5034924;28;20452;-69
2023/12/30 09:55:46;;;;;;;9.13;1.15;;;6.90;99.90;;;;;;5040160;28;20045;-69
2023/12/30 09:58:13;;;;;;;2.90;0.80;;;7.00;99.90;;;;;;5034135;28;20099;-69
2023/12/30 10:00:42;;;;;;;7.80;1.55;;;7.00;99.90;;;;;;5036413;28;20044;-69
2023/12/30 10:03:12;;;;;;;7.70;1.50;;;7.00;99.90;;;;;;5039614;28;20045;-69
2023/12/30 10:05:37;;;;;;;7.05;1.38;;;7.00;99.90;;;;;;5044077;28;20497;-69
2023/12/30 10:08:04;;;;;;;8.03;1.43;;;7.00;99.90;;;;;;5042558;28;20095;-69
2023/12/30 10:10:46;;;;;;;8.95;1.08;;;7.10;99.90;;;;;;5021942;28;20033;-69
2023/12/30 10:13:14;;;;;;;5.35;1.10;;;7.10;99.90;;;;;;5038244;28;20056;-69
2023/12/30 10:15:42;;;;;;;4.57;0.95;;;7.10;99.90;;;;;;5038158;28;20504;-69
2023/12/30 10:18:08;;;;;;;6.63;1.05;;;7.10;99.90;;;;;;5039507;28;20310;-69
2023/12/30 10:20:39;;;;;;;10.63;0.98;;;7.20;99.90;;;;;;5033182;28;20512;-69
2023/12/30 10:23:06;;;;;;;5.57;1.17;;;7.20;99.90;;;;;;5042150;28;20544;-67
2023/12/30 10:25:31;;;;;;;12.30;1.38;;;7.20;99.90;;;;;;5041890;28;20493;-68
2023/12/30 10:27:57;;;;;;;5.83;0.70;;;7.30;99.90;;;;;;5043032;28;20032;-67
2023/12/30 10:30:23;;;;;;;8.87;1.50;;;7.30;99.90;;;;;;5040536;28;20036;-67
2023/12/30 10:32:49;;;;;;;3.95;1.50;;;7.40;99.90;;;;;;5036042;28;20278;-67
2023/12/30 10:35:14;;;;;;;9.90;1.60;;;7.40;99.90;;;;;;5041859;28;20045;-67
2023/12/30 10:37:42;;;;;;;8.40;1.55;;;7.50;99.90;;;;;;5038054;28;20098;-67
2023/12/30 10:40:09;;;;;;;5.47;2.33;;;7.50;99.90;;;;;;5032520;28;20049;-67
2023/12/30 10:42:42;;;;;;;4.15;1.30;;;7.60;99.90;;;;;;5039433;28;20086;-67
2023/12/30 10:45:08;;;;;;;8.85;2.92;;;7.60;99.90;;;;;;5039339;28;20440;-67
2023/12/30 10:47:43;;;;;;;7.85;1.25;;;7.70;99.90;;;;;;5041268;28;20044;-67
2023/12/30 10:50:09;;;;;;;5.80;1.10;;;7.70;99.90;;;;;;5037447;28;20090;-67
2023/12/30 10:52:43;;;;;;;8.15;1.45;;;7.80;99.90;;;;;;5023224;28;20037;-67
2023/12/30 10:55:10;;;;;;;7.88;1.10;;;7.80;99.90;;;;;;5020937;28;20080;-67
2023/12/30 10:57:37;;;;;;;9.98;1.15;;;7.90;99.90;;;;;;5035728;28;20036;-67
2023/12/30 11:00:09;;;;;;;11.05;1.10;;;7.90;99.90;;;;;;5041947;28;20048;-67
2023/12/30 11:02:36;;;;;;;6.00;0.95;;;7.90;99.90;;;;;;5036562;28;20454;-67
2023/12/30 11:05:05;;;;;;;4.93;1.17;;;8.00;99.90;;;;;;5038527;28;20124;-67
2023/12/30 11:07:31;;;;;;;7.88;1.55;;;8.00;99.90;;;;;;5040039;28;20390;-67
2023/12/30 11:09:57;;;;;;;9.15;1.40;;;8.10;99.90;;;;;;5033641;28;20041;-67
2023/12/30 11:12:26;;;;;;;10.27;1.05;;;8.10;99.90;;;;;;5037088;28;20041;-67
2023/12/30 11:14:52;;;;;;;9.63;1.42;;;8.10;99.90;;;;;;5017949;28;20037;-67
2023/12/30 11:17:34;;;;;;;5.43;1.17;;;8.20;99.90;;;;;;5042366;28;20501;-67
2023/12/30 11:20:43;;;;;;;9.30;1.60;;;8.20;99.90;;;;;;5032016;28;20041;-67
2023/12/30 11:23:10;;;;;;;7.03;1.10;;;8.20;99.90;;;;;;5003462;28;20042;-67
2023/12/30 11:25:43;;;;;;;9.27;1.30;;;8.20;99.90;;;;;;4989540;28;20046;-67
2023/12/30 11:28:20;;;;;;;9.73;1.58;;;8.30;99.90;;;;;;5009288;28;20048;-67
2023/12/30 11:30:55;;;;;;;7.45;1.23;;;8.30;99.90;;;;;;5036104;28;20099;-66
2023/12/30 11:33:21;;;;;;;8.80;1.85;;;8.30;99.90;;;;;;5041282;28;20472;-67
2023/12/30 11:35:51;;;;;;;6.45;1.38;;;8.30;99.90;;;;;;5035511;28;20051;-67
2023/12/30 11:38:18;;;;;;;6.18;0.80;;;8.20;99.90;;;;;;5042824;28;20431;-67
2023/12/30 11:40:49;;;;;;;7.95;1.20;;;8.20;99.90;;;;;;5030764;28;20461;-67
2023/12/30 11:43:15;;;;;;;7.88;1.27;;;8.20;99.90;;;;;;5014946;28;20060;-67
2023/12/30 11:45:41;;;;;;;5.97;1.30;;;8.20;99.90;;;;;;5031441;28;20041;-67
2023/12/30 11:48:07;;;;;;;3.72;0.90;;;8.10;99.90;;;;;;5036367;28;20049;-67
2023/12/30 11:50:33;;;;;;;4.78;1.52;;;8.20;99.90;;;;;;5038280;28;20033;-67
2023/12/30 11:53:01;;;;;;;9.20;1.50;;;8.20;99.90;;;;;;5036710;28;20080;-67
2023/12/30 11:55:27;;;;;;;10.35;1.27;;;8.10;99.90;;;;;;5031003;28;20517;-67
2023/12/30 11:57:53;;;;;;;7.22;0.98;;;8.20;99.90;;;;;;5038625;28;20422;-67
2023/12/30 12:00:20;;;;;;;5.53;0.98;;;8.10;99.90;;;;;;5035910;28;20056;-67
2023/12/30 12:02:46;;;;;;;9.68;2.03;;;8.20;99.90;;;;;;5031313;28;20387;-67
2023/12/30 12:05:12;;;;;;;6.05;1.67;;;8.20;99.90;;;;;;5033893;28;20044;-67
2023/12/30 12:07:38;;;;;;;10.48;1.75;;;8.20;99.90;;;;;;5034778;28;20048;-67
2023/12/30 12:10:04;;;;;;;6.80;1.20;;;8.20;99.90;;;;;;5038198;28;20493;-67
2023/12/30 12:12:42;;;;;;;13.65;1.55;;;8.20;99.90;;;;;;5038606;28;20124;-67
2023/12/30 12:15:08;;;;;;;4.90;1.25;;;8.20;99.90;;;;;;5037700;28;20066;-67
2023/12/30 12:17:36;;;;;;;4.88;1.00;;;8.30;99.90;;;;;;5045334;28;20033;-67
2023/12/30 12:20:04;;;;;;;4.85;1.00;;;8.30;99.90;;;;;;5038473;28;20149;-67
2023/12/30 12:22:30;;;;;;;3.30;1.35;;;8.30;99.90;;;;;;5042204;28;20127;-67
2023/12/30 12:24:57;;;;;;;3.15;1.00;;;8.30;99.90;;;;;;5042487;28;20064;-66
2023/12/30 12:27:23;;;;;;;8.57;1.50;;;8.30;99.90;;;;;;5040634;28;20124;-67
2023/12/30 12:29:51;;;;;;;11.00;1.55;;;8.30;99.90;;;;;;5036449;28;20120;-67
2023/12/30 12:32:20;;;;;;;6.90;1.00;;;8.30;99.90;;;;;;5038945;28;20044;-67
2023/12/30 12:34:46;;;;;;;4.10;1.05;;;8.30;99.90;;;;;;5046240;28;20052;-67
2023/12/30 12:37:14;;;;;;;8.45;1.55;;;8.30;99.90;;;;;;5042404;28;20033;-67
2023/12/30 12:39:40;;;;;;;4.50;1.05;;;8.40;99.90;;;;;;5042540;28;20084;-67
2023/12/30 12:42:06;;;;;;;9.98;1.20;;;8.40;99.90;;;;;;5038342;28;20132;-67
2023/12/30 12:44:31;;;;;;;7.25;1.08;;;8.40;99.90;;;;;;5040725;28;20546;-67
2023/12/30 12:46:57;;;;;;;8.83;1.10;;;8.40;99.90;;;;;;5033303;28;20048;-67
2023/12/30 12:49:23;;;;;;;9.10;1.53;;;8.40;99.90;;;;;;5039108;28;20045;-67
2023/12/30 12:51:51;;;;;;;9.10;1.10;;;8.40;99.90;;;;;;5042536;28;20400;-67